Time;durP1;ratioP1;P1;durP2;ratioP2;P2;SDS_P1;SDS_P2;PMS_P1;PMS_P2;Temp;Humidity;BMP_temperature;BMP_pressure;BME280_temperature;BME280_humidity;BME280_pressure;Samples;Min_cycle;Max_cycle;Signal;HPM_P1;HPM_P2
2022/05/17 00:01:22;;;;;;;0.85;0.60;;;18.00;59.30;;;;;;4993705;28;20404;-85
2022/05/17 00:03:49;;;;;;;0.82;0.68;;;18.00;59.30;;;;;;5028812;28;20060;-85
2022/05/17 00:06:15;;;;;;;1.52;0.50;;;17.90;59.30;;;;;;5042219;28;20030;-86
2022/05/17 00:08:41;;;;;;;0.60;0.60;;;18.00;59.40;;;;;;5043937;28;20552;-86
2022/05/17 00:11:10;;;;;;;0.65;0.60;;;17.90;59.40;;;;;;5012283;28;20038;-88
2022/05/17 00:13:36;;;;;;;1.60;0.60;;;17.90;59.50;;;;;;4995763;28;20050;-87
2022/05/17 00:16:03;;;;;;;0.65;0.60;;;17.90;59.50;;;;;;5007548;28;20041;-87
2022/05/17 00:18:30;;;;;;;0.73;0.40;;;17.90;59.50;;;;;;4997798;28;20396;-85
2022/05/17 00:20:56;;;;;;;0.47;0.47;;;17.90;59.60;;;;;;5012414;28;20743;-87
2022/05/17 00:23:22;;;;;;;0.70;0.40;;;17.90;59.70;;;;;;5012716;28;20519;-86
2022/05/17 00:25:49;;;;;;;0.98;0.55;;;17.80;59.70;;;;;;5011569;28;21184;-86
2022/05/17 00:28:19;;;;;;;0.77;0.43;;;17.80;59.70;;;;;;5010518;28;20030;-86
2022/05/17 00:30:46;;;;;;;0.63;0.47;;;17.80;59.80;;;;;;5009281;28;20107;-85
2022/05/17 00:33:12;;;;;;;0.85;0.70;;;17.80;59.80;;;;;;5018126;28;20037;-87
2022/05/17 00:35:38;;;;;;;0.50;0.50;;;17.80;59.90;;;;;;5010252;28;20034;-87
2022/05/17 00:38:05;;;;;;;0.60;0.47;;;17.80;60.00;;;;;;5012674;28;20421;-89
2022/05/17 00:40:31;;;;;;;0.50;0.50;;;17.80;60.00;;;;;;5031471;28;20042;-87
2022/05/17 00:42:57;;;;;;;0.50;0.50;;;17.80;60.10;;;;;;5014147;28;20037;-85
2022/05/17 00:45:23;;;;;;;0.63;0.50;;;17.80;60.00;;;;;;5021156;28;20951;-86
2022/05/17 00:48:06;;;;;;;0.95;0.40;;;17.80;60.10;;;;;;5030669;28;20045;-87
2022/05/17 00:50:37;;;;;;;1.25;0.50;;;17.80;60.80;;;;;;5005214;28;20049;-85
2022/05/17 00:53:11;;;;;;;0.68;0.40;;;17.80;60.30;;;;;;5014274;28;20041;-85
2022/05/17 00:55:56;;;;;;;0.80;0.40;;;17.80;60.40;;;;;;5011195;28;20101;-86
2022/05/17 00:58:36;;;;;;;1.65;0.60;;;17.80;60.40;;;;;;5011026;28;20288;-87
2022/05/17 01:01:07;;;;;;;1.00;0.47;;;17.80;60.40;;;;;;4992748;28;20042;-88
2022/05/17 01:04:06;;;;;;;0.65;0.50;;;17.70;60.40;;;;;;5008655;28;20104;-87
2022/05/17 01:06:36;;;;;;;0.45;0.35;;;17.70;60.50;;;;;;4992535;28;20034;-87
2022/05/17 01:09:03;;;;;;;2.17;0.50;;;17.70;60.60;;;;;;5009260;28;20034;-85
2022/05/17 01:11:29;;;;;;;0.50;0.50;;;17.70;60.70;;;;;;5008606;28;20034;-85
2022/05/17 01:16:40;;;;;;;0.52;0.40;;;17.70;60.90;;;;;;5009249;28;20034;-85
2022/05/17 01:19:08;;;;;;;1.10;0.50;;;17.70;60.90;;;;;;5009825;28;20038;-84
2022/05/17 01:21:34;;;;;;;0.47;0.45;;;17.70;60.90;;;;;;5010993;28;20033;-85
2022/05/17 01:24:00;;;;;;;0.63;0.40;;;17.70;60.90;;;;;;5009532;28;20034;-85
2022/05/17 01:26:30;;;;;;;0.30;0.30;;;17.70;61.00;;;;;;5011455;28;20121;-88
2022/05/17 01:28:56;;;;;;;2.30;0.40;;;17.70;61.00;;;;;;5007745;28;20076;-89
2022/05/17 01:31:22;;;;;;;2.30;0.60;;;17.60;61.00;;;;;;5005710;28;20212;-89
2022/05/17 01:33:49;;;;;;;0.40;0.40;;;17.70;61.10;;;;;;4985892;28;20045;-88
2022/05/17 01:36:21;;;;;;;0.60;0.30;;;17.70;61.10;;;;;;5009151;28;20125;-87
2022/05/17 01:38:50;;;;;;;0.52;0.40;;;17.70;61.10;;;;;;4990064;28;20077;-81
2022/05/17 01:41:18;;;;;;;0.60;0.52;;;17.60;61.20;;;;;;5006606;28;20377;-82
2022/05/17 01:43:44;;;;;;;1.27;0.35;;;17.70;61.30;;;;;;5006865;28;20038;-83
2022/05/17 01:46:10;;;;;;;3.67;1.00;;;17.70;61.20;;;;;;5015943;28;20030;-84
2022/05/17 01:48:38;;;;;;;1.65;0.40;;;17.70;61.30;;;;;;4992183;28;20060;-85
2022/05/17 01:51:06;;;;;;;0.57;0.38;;;17.60;61.40;;;;;;5009920;28;20028;-85
2022/05/17 01:53:33;;;;;;;0.40;0.40;;;17.70;61.40;;;;;;5009515;28;20064;-84
2022/05/17 01:56:01;;;;;;;1.02;0.47;;;17.60;61.40;;;;;;5013067;28;20042;-85
2022/05/17 01:58:27;;;;;;;0.63;0.30;;;17.70;61.50;;;;;;5002689;28;20037;-83
2022/05/17 02:00:53;;;;;;;0.40;0.40;;;17.70;61.50;;;;;;5010995;28;20046;-84
2022/05/17 02:03:19;;;;;;;1.08;0.50;;;17.60;61.60;;;;;;5009273;28;20049;-83
2022/05/17 02:05:45;;;;;;;0.40;0.40;;;17.60;61.60;;;;;;5006544;28;20501;-85
2022/05/17 02:08:11;;;;;;;2.13;0.60;;;17.60;61.60;;;;;;5007529;28;20037;-85
2022/05/17 02:10:37;;;;;;;0.60;0.60;;;17.60;61.70;;;;;;4989641;28;20030;-85
2022/05/17 02:13:03;;;;;;;0.82;0.40;;;17.60;61.70;;;;;;4997892;28;20517;-82
2022/05/17 02:15:29;;;;;;;0.40;0.40;;;17.60;61.70;;;;;;5005214;28;20096;-86
2022/05/17 02:17:55;;;;;;;0.63;0.50;;;17.60;61.70;;;;;;5008146;28;20018;-85
2022/05/17 02:20:21;;;;;;;0.30;0.30;;;17.60;61.70;;;;;;5007051;28;20026;-87
2022/05/17 02:22:47;;;;;;;0.40;0.32;;;17.60;61.70;;;;;;5006934;28;20034;-88
2022/05/17 02:25:13;;;;;;;0.43;0.43;;;17.60;61.70;;;;;;5007959;28;20049;-89
2022/05/17 02:27:39;;;;;;;0.57;0.40;;;17.60;61.70;;;;;;5006350;28;20040;-86
2022/05/17 02:30:08;;;;;;;0.68;0.40;;;17.70;61.80;;;;;;4999722;28;20401;-88
2022/05/17 02:32:34;;;;;;;0.30;0.30;;;17.60;61.80;;;;;;5006462;28;20077;-88
2022/05/17 02:35:00;;;;;;;1.00;0.50;;;17.60;61.90;;;;;;5023212;28;20070;-86
2022/05/17 02:37:26;;;;;;;0.57;0.45;;;17.70;61.90;;;;;;5005445;28;20478;-88
2022/05/17 02:39:53;;;;;;;0.40;0.40;;;17.60;61.90;;;;;;5007078;28;20439;-88
2022/05/17 02:42:19;;;;;;;0.73;0.55;;;17.60;61.90;;;;;;5005660;28;20049;-86
2022/05/17 02:44:46;;;;;;;0.60;0.30;;;17.60;61.90;;;;;;5004735;28;20049;-84
2022/05/17 02:47:12;;;;;;;0.45;0.30;;;17.60;61.90;;;;;;5005777;28;20463;-84
2022/05/17 02:49:40;;;;;;;0.60;0.60;;;17.60;62.00;;;;;;5004954;28;20034;-85
2022/05/17 02:52:07;;;;;;;0.47;0.47;;;17.60;62.10;;;;;;4986038;28;20034;-85
2022/05/17 02:54:33;;;;;;;1.85;0.45;;;17.60;62.00;;;;;;5006860;28;20036;-87
2022/05/17 02:57:00;;;;;;;0.80;0.63;;;17.70;62.10;;;;;;5013497;28;20034;-84
2022/05/17 02:59:26;;;;;;;0.45;0.45;;;17.70;62.10;;;;;;5012971;28;20068;-89
2022/05/17 03:01:52;;;;;;;0.40;0.35;;;17.60;62.00;;;;;;4989007;28;20038;-87
2022/05/17 03:04:18;;;;;;;0.85;0.50;;;17.70;62.10;;;;;;5023569;28;20040;-86
2022/05/17 03:06:45;;;;;;;0.90;0.40;;;17.60;62.10;;;;;;5011078;28;20022;-81
2022/05/17 03:09:13;;;;;;;0.85;0.50;;;17.70;62.20;;;;;;5033149;28;20021;-87
2022/05/17 03:11:43;;;;;;;0.50;0.50;;;17.70;62.10;;;;;;5014677;28;20031;-82
2022/05/17 03:14:13;;;;;;;0.40;0.40;;;17.70;62.10;;;;;;5005635;28;20041;-90
2022/05/17 03:16:40;;;;;;;1.77;0.77;;;17.70;62.20;;;;;;5006181;28;20053;-80
2022/05/17 03:19:06;;;;;;;0.60;0.60;;;17.70;62.10;;;;;;5005948;28;20070;-87
2022/05/17 03:21:33;;;;;;;0.85;0.50;;;17.70;62.10;;;;;;5004904;28;20042;-89
2022/05/17 03:23:59;;;;;;;0.40;0.40;;;17.70;62.10;;;;;;4990788;28;20141;-85
2022/05/17 03:26:25;;;;;;;0.50;0.50;;;17.70;62.10;;;;;;5022663;28;20034;-88
2022/05/17 03:28:52;;;;;;;0.98;0.40;;;17.70;62.20;;;;;;4985672;28;20030;-89
2022/05/17 03:31:18;;;;;;;0.73;0.50;;;17.70;62.10;;;;;;4990549;28;20061;-88
2022/05/17 03:33:44;;;;;;;1.95;0.60;;;17.70;62.20;;;;;;4992045;28;20042;-89
2022/05/17 03:36:10;;;;;;;1.20;0.50;;;17.70;62.20;;;;;;4994713;28;20045;-88
2022/05/17 03:38:37;;;;;;;0.30;0.30;;;17.70;62.30;;;;;;5008827;28;20038;-84
2022/05/17 03:41:04;;;;;;;0.68;0.68;;;17.70;62.30;;;;;;4991888;28;20037;-83
2022/05/17 03:43:30;;;;;;;0.63;0.40;;;17.70;62.60;;;;;;4973735;28;20088;-80
2022/05/17 03:45:57;;;;;;;1.85;0.40;;;17.70;62.70;;;;;;5008825;28;20042;-85
2022/05/17 03:48:26;;;;;;;1.35;0.35;;;17.70;62.70;;;;;;5009816;28;20038;-82
2022/05/17 03:50:52;;;;;;;2.33;0.40;;;17.70;62.60;;;;;;4998867;28;20516;-84
2022/05/17 03:53:19;;;;;;;1.05;0.40;;;17.80;62.50;;;;;;4992562;28;20061;-83
2022/05/17 03:55:44;;;;;;;1.75;0.40;;;17.70;62.50;;;;;;5024257;28;20084;-83
2022/05/17 03:58:11;;;;;;;0.47;0.40;;;17.80;62.40;;;;;;5000731;28;20034;-84
2022/05/17 04:00:37;;;;;;;0.30;0.30;;;17.80;62.30;;;;;;5008750;28;20058;-83
2022/05/17 04:03:03;;;;;;;0.30;0.30;;;17.80;62.30;;;;;;4999733;28;20070;-82
2022/05/17 04:05:30;;;;;;;0.50;0.30;;;17.90;62.10;;;;;;4991639;28;20034;-83
2022/05/17 04:07:56;;;;;;;0.40;0.40;;;17.90;62.10;;;;;;5010644;28;20382;-83
2022/05/17 04:10:23;;;;;;;1.00;0.30;;;17.90;62.20;;;;;;5013415;28;20033;-81
2022/05/17 04:12:49;;;;;;;0.93;0.57;;;17.90;62.10;;;;;;5013884;28;20042;-80
2022/05/17 04:15:21;;;;;;;0.22;0.22;;;17.90;62.20;;;;;;5024776;28;20147;-86
2022/05/17 04:17:49;;;;;;;0.40;0.32;;;17.90;62.20;;;;;;5029186;28;20037;-84
2022/05/17 04:20:16;;;;;;;1.25;0.57;;;17.90;62.20;;;;;;5011343;28;20646;-82
2022/05/17 04:22:44;;;;;;;1.40;0.50;;;17.90;62.00;;;;;;5025598;28;20038;-82
2022/05/17 04:25:11;;;;;;;0.70;0.40;;;17.90;62.20;;;;;;5008871;28;20088;-85
2022/05/17 04:27:37;;;;;;;0.43;0.40;;;17.90;62.10;;;;;;4994877;28;20537;-81
2022/05/17 04:30:05;;;;;;;0.65;0.50;;;17.90;62.10;;;;;;4989487;28;20041;-82
2022/05/17 04:32:31;;;;;;;0.40;0.40;;;17.90;62.10;;;;;;5008934;28;20049;-84
2022/05/17 04:34:57;;;;;;;0.77;0.50;;;18.00;62.20;;;;;;5009287;28;20576;-81
2022/05/17 04:37:23;;;;;;;0.35;0.35;;;17.90;62.30;;;;;;5005386;28;20512;-83
2022/05/17 04:39:49;;;;;;;1.30;0.38;;;17.90;62.30;;;;;;5006285;28;20049;-81
2022/05/17 04:42:15;;;;;;;0.70;0.50;;;17.90;62.30;;;;;;5006881;28;20511;-82
2022/05/17 04:44:42;;;;;;;0.40;0.40;;;17.90;62.40;;;;;;5006180;28;20667;-81
2022/05/17 04:47:09;;;;;;;0.40;0.40;;;17.90;62.50;;;;;;5008074;28;20113;-80
2022/05/17 04:49:36;;;;;;;5.60;0.82;;;17.90;62.50;;;;;;5007115;28;20065;-76
2022/05/17 04:52:01;;;;;;;4.50;0.63;;;17.90;63.10;;;;;;5014729;28;20049;-77
2022/05/17 04:54:29;;;;;;;1.92;0.70;;;17.90;64.20;;;;;;5008181;28;20141;-77
2022/05/17 04:56:55;;;;;;;3.25;1.17;;;17.90;64.40;;;;;;5008259;28;20120;-78
2022/05/17 04:59:20;;;;;;;1.85;1.00;;;17.90;64.40;;;;;;5005629;28;20068;-79
2022/05/17 05:01:47;;;;;;;6.40;1.15;;;17.90;64.80;;;;;;5004630;28;20041;-77
2022/05/17 05:04:13;;;;;;;2.90;0.93;;;17.90;65.10;;;;;;5007182;28;20145;-78
2022/05/17 05:06:39;;;;;;;2.60;0.93;;;17.90;65.30;;;;;;4991243;28;20072;-77
2022/05/17 05:09:07;;;;;;;2.88;1.13;;;18.00;65.30;;;;;;5006661;28;20585;-78
2022/05/17 05:11:34;;;;;;;2.28;0.77;;;17.90;65.20;;;;;;5005829;28;20042;-78
2022/05/17 05:14:00;;;;;;;3.85;1.10;;;18.00;65.50;;;;;;5006695;28;20038;-77
2022/05/17 05:16:26;;;;;;;3.78;1.10;;;18.00;66.10;;;;;;5007349;28;20096;-76
2022/05/17 05:18:52;;;;;;;3.60;1.02;;;18.00;65.70;;;;;;5007867;28;20125;-76
2022/05/17 05:21:19;;;;;;;4.70;0.93;;;18.00;65.50;;;;;;5007192;28;20400;-78
2022/05/17 05:23:45;;;;;;;3.13;0.98;;;18.10;66.30;;;;;;5009823;28;20033;-76
2022/05/17 05:26:13;;;;;;;2.35;1.25;;;18.10;66.10;;;;;;5006635;28;20038;-76
2022/05/17 05:28:40;;;;;;;9.55;1.10;;;18.10;65.80;;;;;;5007016;28;20033;-77
2022/05/17 05:31:06;;;;;;;1.63;1.05;;;18.10;65.40;;;;;;5006256;28;20061;-77
2022/05/17 05:33:34;;;;;;;1.35;0.80;;;18.10;65.20;;;;;;5006910;28;20034;-77
2022/05/17 05:36:01;;;;;;;10.40;1.50;;;18.10;65.10;;;;;;5006405;28;20041;-77
2022/05/17 05:38:28;;;;;;;1.40;0.70;;;18.10;65.00;;;;;;5006543;28;20042;-78
2022/05/17 05:40:54;;;;;;;1.17;0.88;;;18.10;65.00;;;;;;5006088;28;20042;-77
2022/05/17 05:43:20;;;;;;;3.40;0.65;;;18.20;65.00;;;;;;5004360;28;20049;-77
2022/05/17 05:45:46;;;;;;;2.35;0.75;;;18.20;65.00;;;;;;5004108;28;20045;-76
2022/05/17 05:48:12;;;;;;;3.25;1.10;;;18.20;64.70;;;;;;5006959;28;20088;-77
2022/05/17 05:50:38;;;;;;;0.82;0.70;;;18.20;64.60;;;;;;5005286;28;20061;-77
2022/05/17 05:53:07;;;;;;;1.33;0.77;;;18.10;64.30;;;;;;5004467;28;20065;-77
2022/05/17 05:55:34;;;;;;;2.03;1.58;;;18.10;64.40;;;;;;5019321;28;20132;-78
2022/05/17 05:58:02;;;;;;;1.35;1.08;;;18.10;64.40;;;;;;5006079;28;20034;-76
2022/05/17 06:00:29;;;;;;;1.58;1.10;;;18.10;64.40;;;;;;5005745;28;20408;-76
2022/05/17 06:02:55;;;;;;;2.58;1.10;;;18.10;64.50;;;;;;5014044;28;20041;-78
2022/05/17 06:05:23;;;;;;;0.80;0.80;;;18.10;64.40;;;;;;5005401;28;20077;-78
2022/05/17 06:07:50;;;;;;;1.63;0.90;;;18.10;64.30;;;;;;5005484;28;20057;-75
2022/05/17 06:10:17;;;;;;;1.83;1.17;;;18.10;64.30;;;;;;5005458;28;20048;-76
2022/05/17 06:12:43;;;;;;;1.38;1.00;;;18.10;64.20;;;;;;5005650;28;20046;-76
2022/05/17 06:15:10;;;;;;;1.05;0.70;;;18.20;64.30;;;;;;5006226;28;20041;-76
2022/05/17 06:17:38;;;;;;;0.75;0.75;;;18.10;64.20;;;;;;5006438;28;20092;-78
2022/05/17 06:20:06;;;;;;;2.30;1.08;;;18.10;64.20;;;;;;5005260;28;20150;-78
2022/05/17 06:22:32;;;;;;;0.80;0.80;;;18.10;64.10;;;;;;5005859;28;20468;-77
2022/05/17 06:24:58;;;;;;;1.23;0.70;;;18.10;63.90;;;;;;5005528;28;20042;-78
2022/05/17 06:27:25;;;;;;;2.00;0.93;;;18.20;63.90;;;;;;5006126;28;20077;-78
2022/05/17 06:29:52;;;;;;;1.17;1.00;;;18.20;64.00;;;;;;5005831;28;20038;-77
2022/05/17 06:32:18;;;;;;;1.70;1.00;;;18.20;64.00;;;;;;5005914;28;20091;-77
2022/05/17 06:34:47;;;;;;;0.98;0.88;;;18.20;63.80;;;;;;5005389;28;20065;-76
2022/05/17 06:37:14;;;;;;;1.20;1.00;;;18.20;63.70;;;;;;5005886;28;20121;-75
2022/05/17 06:39:41;;;;;;;2.88;1.20;;;18.20;63.60;;;;;;5005437;28;20040;-75
2022/05/17 06:42:08;;;;;;;1.77;1.13;;;18.20;63.70;;;;;;5003934;28;20033;-77
2022/05/17 06:44:36;;;;;;;2.80;1.10;;;18.10;63.80;;;;;;5004912;28;20046;-77
2022/05/17 06:47:02;;;;;;;1.50;1.20;;;18.10;63.80;;;;;;5004786;28;20111;-76
2022/05/17 06:49:28;;;;;;;1.50;1.40;;;18.10;63.80;;;;;;5004946;28;20033;-78
2022/05/17 06:51:57;;;;;;;2.42;1.40;;;18.10;63.70;;;;;;5004227;28;20041;-77
2022/05/17 06:54:24;;;;;;;1.50;1.40;;;18.10;63.70;;;;;;5005521;28;20084;-78
2022/05/17 06:56:49;;;;;;;1.58;1.48;;;18.10;63.60;;;;;;5005051;28;20496;-77
2022/05/17 06:59:15;;;;;;;1.88;1.42;;;18.10;63.80;;;;;;5005467;28;20045;-77
2022/05/17 07:01:43;;;;;;;1.80;1.70;;;18.10;63.60;;;;;;5004070;28;20132;-78
2022/05/17 07:04:09;;;;;;;3.33;1.95;;;18.10;63.50;;;;;;5004709;28;20480;-78
2022/05/17 07:06:35;;;;;;;2.13;1.70;;;18.10;63.50;;;;;;5004962;28;20480;-78
2022/05/17 07:09:02;;;;;;;3.55;2.17;;;18.10;63.40;;;;;;5008188;28;20042;-78
2022/05/17 07:14:15;;;;;;;4.22;2.03;;;18.10;63.60;;;;;;5008279;28;20030;-77
2022/05/17 07:16:41;;;;;;;3.67;1.88;;;18.10;63.80;;;;;;5007606;28;20116;-78
2022/05/17 07:19:07;;;;;;;2.92;1.98;;;18.10;63.70;;;;;;5006899;28;20591;-78
2022/05/17 07:21:33;;;;;;;2.45;2.20;;;18.10;63.80;;;;;;5007912;28;20038;-77
2022/05/17 07:23:59;;;;;;;3.42;2.15;;;18.10;63.70;;;;;;5008689;28;20416;-76
2022/05/17 07:26:25;;;;;;;1.73;1.63;;;18.20;63.70;;;;;;5008116;28;20050;-78
2022/05/17 07:28:51;;;;;;;3.05;2.15;;;18.20;63.60;;;;;;5008805;28;20104;-78
2022/05/17 07:31:17;;;;;;;2.53;2.30;;;18.20;63.50;;;;;;4997231;28;20492;-78
2022/05/17 07:33:43;;;;;;;3.20;2.70;;;18.20;63.60;;;;;;5012919;28;20123;-78
2022/05/17 07:36:11;;;;;;;3.63;2.50;;;18.20;63.40;;;;;;5030219;28;20037;-77
2022/05/17 07:38:37;;;;;;;5.88;2.83;;;18.30;63.30;;;;;;5027328;28;20053;-79
2022/05/17 07:41:05;;;;;;;3.75;2.50;;;18.30;63.40;;;;;;5025966;28;20076;-78
2022/05/17 07:43:31;;;;;;;2.63;2.38;;;18.30;63.40;;;;;;5006460;28;20052;-79
2022/05/17 07:45:57;;;;;;;2.67;2.42;;;18.40;63.30;;;;;;5006082;28;20124;-78
2022/05/17 07:48:25;;;;;;;4.50;2.10;;;18.40;63.10;;;;;;5005860;28;20151;-78
2022/05/17 07:50:52;;;;;;;2.97;2.60;;;18.40;63.00;;;;;;5012356;28;20037;-79
2022/05/17 07:53:21;;;;;;;3.58;2.60;;;18.50;63.10;;;;;;5003799;28;20041;-78
2022/05/17 07:55:47;;;;;;;2.50;2.30;;;18.50;62.90;;;;;;4996307;28;20041;-79
2022/05/17 07:58:14;;;;;;;2.60;2.40;;;18.60;62.90;;;;;;5003158;28;20069;-78
2022/05/17 08:00:42;;;;;;;3.13;2.80;;;18.60;62.70;;;;;;5005384;28;20535;-76
2022/05/17 08:03:10;;;;;;;3.70;2.67;;;18.70;62.80;;;;;;5020399;28;20029;-76
2022/05/17 08:05:36;;;;;;;2.67;2.47;;;18.70;62.80;;;;;;5003778;28;20568;-76
2022/05/17 08:08:03;;;;;;;3.85;2.50;;;18.80;62.90;;;;;;5004120;28;20088;-76
2022/05/17 08:10:29;;;;;;;2.58;2.38;;;18.80;62.60;;;;;;4995918;28;20433;-76
2022/05/17 08:12:56;;;;;;;2.63;2.42;;;18.80;62.50;;;;;;5004336;28;20045;-76
2022/05/17 08:15:23;;;;;;;3.05;2.58;;;18.90;62.80;;;;;;5004613;28;20030;-75
2022/05/17 08:17:50;;;;;;;3.30;2.30;;;18.90;62.70;;;;;;5006484;28;20034;-76
2022/05/17 08:20:18;;;;;;;2.70;2.50;;;18.90;62.60;;;;;;5004938;28;20041;-75
2022/05/17 08:22:45;;;;;;;2.75;2.40;;;18.90;62.80;;;;;;5006078;28;20456;-75
2022/05/17 08:28:01;;;;;;;2.63;2.42;;;18.90;62.40;;;;;;5005997;28;20805;-76
2022/05/17 08:30:28;;;;;;;2.42;2.22;;;19.00;62.60;;;;;;5006558;28;20033;-76
2022/05/17 08:33:15;;;;;;;2.42;2.22;;;18.90;62.20;;;;;;5004285;28;20061;-75
2022/05/17 08:35:49;;;;;;;2.40;2.20;;;18.90;62.80;;;;;;5004769;28;20041;-76
2022/05/17 08:38:19;;;;;;;2.65;2.15;;;18.90;62.20;;;;;;5003015;28;20504;-76
2022/05/17 08:41:09;;;;;;;2.53;2.33;;;18.80;62.20;;;;;;5005223;28;20038;-77
2022/05/17 08:43:47;;;;;;;4.32;3.35;;;18.80;62.30;;;;;;5005177;28;20065;-77
2022/05/17 08:46:44;;;;;;;6.78;3.58;;;18.80;62.40;;;;;;5010368;28;20049;-76
2022/05/17 08:49:22;;;;;;;4.07;3.40;;;18.80;62.30;;;;;;5008016;28;20034;-76
2022/05/17 08:52:07;;;;;;;3.75;2.97;;;18.80;62.60;;;;;;5007225;28;20401;-76
2022/05/17 08:54:40;;;;;;;3.83;2.97;;;18.80;62.40;;;;;;5004085;28;20029;-76
2022/05/17 08:57:18;;;;;;;5.35;3.20;;;18.80;62.30;;;;;;5003959;28;20032;-76
2022/05/17 08:59:46;;;;;;;8.55;3.30;;;18.90;62.50;;;;;;5004877;28;20037;-77
2022/05/17 09:02:20;;;;;;;3.45;3.10;;;18.90;62.90;;;;;;5007106;28;20425;-77
2022/05/17 09:04:55;;;;;;;3.73;3.30;;;18.90;62.20;;;;;;5007183;28;20042;-78
2022/05/17 09:07:26;;;;;;;5.05;3.08;;;18.90;63.00;;;;;;5007200;28;21086;-77
2022/05/17 09:10:05;;;;;;;7.95;3.50;;;18.90;62.30;;;;;;5006664;28;20045;-77
2022/05/17 09:12:52;;;;;;;5.38;3.42;;;18.90;62.40;;;;;;5006923;28;20062;-78
2022/05/17 09:15:19;;;;;;;5.18;3.97;;;18.90;62.60;;;;;;5007724;28;20515;-77
2022/05/17 09:17:47;;;;;;;4.30;3.47;;;18.90;62.70;;;;;;5006026;28;20038;-77
2022/05/17 09:20:18;;;;;;;5.25;3.20;;;18.90;62.60;;;;;;5006904;28;20037;-77
2022/05/17 09:22:44;;;;;;;5.97;4.10;;;19.00;62.80;;;;;;5006677;28;20038;-77
2022/05/17 09:25:26;;;;;;;4.32;3.88;;;18.90;62.60;;;;;;5006743;28;20555;-77
2022/05/17 09:27:53;;;;;;;5.20;4.07;;;18.90;62.60;;;;;;5006844;28;20061;-77
2022/05/17 09:30:21;;;;;;;4.18;3.78;;;19.00;62.80;;;;;;5006049;28;20583;-77
2022/05/17 09:32:58;;;;;;;4.72;3.75;;;18.90;62.70;;;;;;5006686;28;20033;-77
2022/05/17 09:35:24;;;;;;;5.03;4.28;;;18.90;62.60;;;;;;5005320;28;20038;-77
2022/05/17 09:37:58;;;;;;;4.80;4.40;;;18.90;62.50;;;;;;5005597;28;20046;-77
2022/05/17 09:40:29;;;;;;;4.47;4.07;;;18.90;62.20;;;;;;5001984;28;20037;-78
2022/05/17 09:42:59;;;;;;;4.78;4.28;;;18.80;62.10;;;;;;5004428;28;20038;-77
2022/05/17 09:46:09;;;;;;;4.93;4.53;;;18.80;61.80;;;;;;5005611;28;20709;-77
2022/05/17 09:54:38;;;;;;;5.60;4.57;;;18.80;62.80;;;;;;5015057;28;20153;-76
2022/05/17 09:57:15;;;;;;;5.55;4.75;;;18.80;62.50;;;;;;5017400;28;20050;-77
2022/05/17 09:59:43;;;;;;;5.00;4.53;;;18.80;62.40;;;;;;5033258;28;20044;-77
2022/05/17 10:02:43;;;;;;;5.45;4.72;;;18.80;62.70;;;;;;5007065;28;20038;-77
2022/05/17 10:05:14;;;;;;;4.72;4.28;;;18.80;62.40;;;;;;4990708;28;20041;-77
2022/05/17 10:07:40;;;;;;;4.45;4.05;;;18.80;62.00;;;;;;5005518;28;20465;-77
2022/05/17 10:10:21;;;;;;;5.10;4.43;;;18.80;61.90;;;;;;5004968;28;20037;-76
2022/05/17 10:12:51;;;;;;;5.25;4.45;;;18.90;62.30;;;;;;5006243;28;20038;-77
2022/05/17 10:15:19;;;;;;;6.82;4.38;;;18.90;62.20;;;;;;5005553;28;20413;-78
2022/05/17 10:17:56;;;;;;;5.30;4.80;;;19.00;62.40;;;;;;5005164;28;20033;-77
2022/05/17 10:20:37;;;;;;;8.00;4.80;;;18.90;62.40;;;;;;5004494;28;20133;-76
2022/05/17 10:23:21;;;;;;;4.95;4.45;;;18.90;62.50;;;;;;5000658;28;20099;-77
2022/05/17 10:26:15;;;;;;;5.95;4.28;;;19.00;62.50;;;;;;5002642;28;20424;-77
2022/05/17 10:28:53;;;;;;;4.85;3.70;;;18.90;62.40;;;;;;4995603;28;20710;-77
2022/05/17 10:31:46;;;;;;;6.35;4.43;;;19.00;62.60;;;;;;5004321;28;20568;-77
2022/05/17 10:34:18;;;;;;;5.32;4.68;;;19.00;62.70;;;;;;5004067;28;20037;-77
2022/05/17 10:36:47;;;;;;;5.65;4.05;;;19.00;62.60;;;;;;5004619;28;20039;-76
2022/05/17 10:39:39;;;;;;;4.97;4.50;;;19.00;62.60;;;;;;5004936;28;20031;-77
2022/05/17 10:42:05;;;;;;;5.10;4.60;;;18.90;62.50;;;;;;5003170;28;20169;-77
2022/05/17 10:44:47;;;;;;;6.35;4.40;;;18.90;62.40;;;;;;5003863;28;20058;-77
2022/05/17 10:47:46;;;;;;;4.80;4.28;;;18.90;62.50;;;;;;5002679;28;21191;-77
2022/05/17 10:50:21;;;;;;;6.20;4.45;;;18.80;62.50;;;;;;5002433;28;20061;-76
2022/05/17 10:53:04;;;;;;;4.85;4.35;;;18.80;62.50;;;;;;5002241;28;20563;-76
2022/05/17 10:56:05;;;;;;;4.03;3.72;;;18.80;62.60;;;;;;5016796;28;20041;-78
2022/05/17 10:58:53;;;;;;;4.90;4.40;;;18.80;62.80;;;;;;5001723;28;20421;-78
2022/05/17 11:01:37;;;;;;;5.10;4.10;;;18.80;62.60;;;;;;5001717;28;20026;-78
2022/05/17 11:04:24;;;;;;;4.47;4.07;;;18.80;62.60;;;;;;5005848;28;20046;-78
2022/05/17 11:07:19;;;;;;;5.45;4.05;;;18.80;62.70;;;;;;5004583;28;20034;-76
2022/05/17 11:10:01;;;;;;;3.95;3.55;;;18.80;62.90;;;;;;5005800;28;20049;-77
2022/05/17 11:12:34;;;;;;;4.35;3.85;;;18.80;62.90;;;;;;5005239;28;20029;-78
2022/05/17 11:15:08;;;;;;;4.25;3.65;;;18.80;62.90;;;;;;5005250;28;20494;-77
2022/05/17 11:17:39;;;;;;;4.40;4.00;;;18.80;62.80;;;;;;5005343;28;20038;-78
2022/05/17 11:20:16;;;;;;;4.63;4.20;;;18.80;62.80;;;;;;5019909;28;20089;-78
2022/05/17 11:22:51;;;;;;;3.70;3.38;;;18.80;62.80;;;;;;5004892;28;20046;-76
2022/05/17 11:25:29;;;;;;;6.05;3.83;;;18.80;62.80;;;;;;5004447;28;20034;-77
2022/05/17 11:28:06;;;;;;;5.00;3.92;;;18.80;62.70;;;;;;5003580;28;20096;-77
2022/05/17 11:30:57;;;;;;;5.13;3.70;;;18.90;62.70;;;;;;5005192;28;20132;-77
2022/05/17 11:33:35;;;;;;;4.78;4.30;;;18.80;62.50;;;;;;5004792;28;20038;-78
2022/05/17 11:36:32;;;;;;;6.05;3.92;;;18.80;62.50;;;;;;5004867;28;20829;-77
2022/05/17 11:39:02;;;;;;;4.10;3.38;;;18.80;62.50;;;;;;4993371;28;20121;-78
2022/05/17 11:41:34;;;;;;;5.20;3.97;;;18.80;62.60;;;;;;5003835;28;20144;-77
2022/05/17 11:44:05;;;;;;;7.80;3.92;;;18.90;62.40;;;;;;5005025;28;20062;-76
2022/05/17 11:46:31;;;;;;;4.60;3.40;;;18.90;62.40;;;;;;5004964;28;20436;-76
2022/05/17 11:49:02;;;;;;;4.57;3.75;;;18.80;62.30;;;;;;5003331;28;20038;-77
2022/05/17 11:51:31;;;;;;;7.07;3.72;;;18.90;62.30;;;;;;5005230;28;20022;-76
2022/05/17 11:53:57;;;;;;;4.30;3.90;;;18.90;62.30;;;;;;5005452;28;20513;-77
2022/05/17 11:56:32;;;;;;;5.55;3.40;;;18.80;62.20;;;;;;5008156;28;20074;-77
2022/05/17 11:59:12;;;;;;;3.90;3.28;;;18.90;62.20;;;;;;5008232;28;20053;-77
2022/05/17 12:01:37;;;;;;;3.45;3.22;;;18.90;62.30;;;;;;5008599;28;20041;-77
2022/05/17 12:04:23;;;;;;;3.60;3.30;;;18.90;62.20;;;;;;4988990;28;20496;-77
2022/05/17 12:06:49;;;;;;;4.80;3.25;;;18.90;62.10;;;;;;5023545;28;20073;-76
2022/05/17 12:09:24;;;;;;;3.95;3.55;;;18.90;62.00;;;;;;5008453;28;20065;-77
2022/05/17 12:12:10;;;;;;;3.55;3.25;;;18.90;62.10;;;;;;5009902;28;20041;-75
2022/05/17 12:14:42;;;;;;;4.32;3.13;;;18.90;61.90;;;;;;5012849;28;20626;-76
2022/05/17 12:17:15;;;;;;;5.05;3.35;;;18.90;61.90;;;;;;5014909;28;20408;-78
2022/05/17 12:20:11;;;;;;;3.40;3.08;;;18.90;61.90;;;;;;5012718;28;20046;-77
2022/05/17 12:22:59;;;;;;;5.00;2.97;;;18.90;61.80;;;;;;5008552;28;20030;-77
2022/05/17 12:25:44;;;;;;;3.58;2.83;;;18.90;61.90;;;;;;5007854;28;20050;-76
2022/05/17 12:28:23;;;;;;;3.17;2.97;;;19.00;61.80;;;;;;5007921;28;20048;-77
2022/05/17 12:31:00;;;;;;;3.75;3.10;;;19.00;61.70;;;;;;5007455;28;20137;-78
2022/05/17 12:33:29;;;;;;;2.92;2.67;;;19.00;61.60;;;;;;5007837;28;20042;-79
2022/05/17 12:36:23;;;;;;;4.60;3.10;;;19.00;61.50;;;;;;5007635;28;20053;-77
2022/05/17 12:44:43;;;;;;;4.38;2.58;;;19.10;61.60;;;;;;5006907;28;20050;-77
2022/05/17 12:47:15;;;;;;;3.10;2.58;;;19.10;61.50;;;;;;5006566;28;20034;-76
2022/05/17 12:49:42;;;;;;;3.15;2.83;;;19.10;61.30;;;;;;5004384;28;20030;-76
2022/05/17 12:52:29;;;;;;;6.20;2.88;;;19.10;61.80;;;;;;5005774;28;20034;-76
2022/05/17 12:55:17;;;;;;;2.78;2.58;;;19.10;61.80;;;;;;5005497;28;20357;-76
2022/05/17 12:57:44;;;;;;;4.05;2.80;;;19.10;61.80;;;;;;5006309;28;20092;-77
2022/05/17 13:00:29;;;;;;;3.13;2.83;;;19.10;61.80;;;;;;5004934;28;20040;-76
2022/05/17 13:03:01;;;;;;;3.00;2.63;;;19.10;61.80;;;;;;5007511;28;20531;-76
2022/05/17 13:05:39;;;;;;;3.88;2.90;;;19.20;61.80;;;;;;5005643;28;20099;-76
2022/05/17 13:08:28;;;;;;;3.05;2.60;;;19.20;61.90;;;;;;5005643;28;20329;-76
2022/05/17 13:11:12;;;;;;;3.42;2.50;;;19.20;61.70;;;;;;5006563;28;20064;-75
2022/05/17 13:13:41;;;;;;;3.55;2.95;;;19.20;61.70;;;;;;5000546;28;20030;-76
2022/05/17 13:16:32;;;;;;;3.17;2.85;;;19.20;61.70;;;;;;5005103;28;20033;-76
2022/05/17 13:19:02;;;;;;;2.83;2.50;;;19.20;61.70;;;;;;4998443;28;20065;-76
2022/05/17 13:21:35;;;;;;;2.92;2.50;;;19.30;61.70;;;;;;5012310;28;20096;-75
2022/05/17 13:24:04;;;;;;;2.60;2.40;;;19.30;61.80;;;;;;5017110;28;20053;-76
2022/05/17 13:26:46;;;;;;;3.78;2.60;;;19.30;61.70;;;;;;5023464;28;20152;-76